メインページ
METAR-TAF:

METAR-TAF

空港 :

マル・デル・プラタ, アルゼンチン

緯度: 37-56S, 経度: 057-35W, 海抜: 18m

現時点の気象観測

当レポートは18分前の02:00(UTC)に作成
西/北西の風 5kt
気温 14°C
湿度 94%
気圧 1017 hPa
視程10km以上
1,500メートル以下は雲なし、積乱雲なし

METAR: SAZM 010200Z 29005KT CAVOK 14/13 Q1017

時間: 23:18 (02:18 UTC)

予報

当レポートは3時間18分前の23:00(UTC)に作成
予報は01日の 00時(UTC)から 01日の 24時(UTC)まで有効
北/北西の風 10kt
視程10km以上
1,500メートル以下は雲なし、積乱雲なし
01日の 04時(UTC)から 01日の 06時(UTC)まで徐々に
北/北西の風 15kt
視程: 7000m
01日の 09時(UTC)から 01日の 12時(UTC)まで一時的に
の風 15kt
視程: 4000m
01日の 13時(UTC)から 01日の 14時(UTC)まで徐々に
の風 15kt
視程10km以上
1,500メートル以下は雲なし、積乱雲なし

TAF: SAZM 302300Z 0100/0124 34010KT CAVOK TX23/0119Z TN10/0110Z BECMG 0104/0106 34015KT 7000 NSC TEMPO 0109/0112 35015KT 4000 BR BECMG 0113/0114 36015KT CAVOK

4,000以上の空港の気象観測と天気予報(METAR報とTAF報)

利用可能な観測所は地図上に黄色い丸と赤い丸で示す。

丸の上にカーソルを重ねると観測所名を参照できる。

次にクリックすると気象観測と天気予報を参照できる。

マップの切り替え:黒色「×」印の緑ボタンをクリックして拡大、「-」印の緑ボタンをクリックして縮小、緑色の三角印をクリックして隣りの地図に切り替え


METAR-TAF: